createdAt,value
2023-03-29T00:04:27.537Z,4.70
2023-03-29T00:10:31.334Z,4.70
2023-03-29T00:16:33.643Z,4.80
2023-03-29T00:22:37.134Z,4.80
2023-03-29T00:28:38.956Z,4.90
2023-03-29T00:34:42.709Z,4.90
2023-03-29T00:40:47.082Z,5.10
2023-03-29T00:46:49.061Z,5.10
2023-03-29T00:53:09.168Z,5.10
2023-03-29T00:59:24.008Z,5.20
2023-03-29T01:05:34.761Z,5.20
2023-03-29T01:11:58.394Z,5.30
2023-03-29T01:18:02.020Z,5.40
2023-03-29T01:24:42.061Z,5.40
2023-03-29T01:30:56.205Z,5.30
2023-03-29T01:37:04.405Z,5.20
2023-03-29T01:43:26.180Z,5.10
2023-03-29T01:49:34.852Z,5.10
2023-03-29T01:55:40.604Z,5.00
2023-03-29T02:01:49.351Z,5.10
2023-03-29T02:07:53.030Z,5.10
2023-03-29T02:13:56.378Z,5.00
2023-03-29T02:20:13.819Z,5.00
2023-03-29T02:26:17.671Z,5.00
2023-03-29T02:32:42.365Z,4.90
2023-03-29T02:38:44.984Z,4.90
2023-03-29T02:44:48.790Z,4.80
2023-03-29T02:50:56.202Z,4.90
2023-03-29T02:57:00.791Z,4.80
2023-03-29T03:03:04.416Z,4.80
2023-03-29T03:09:07.373Z,4.70
2023-03-29T03:15:13.469Z,4.70
2023-03-29T03:21:15.633Z,4.70
2023-03-29T03:27:18.103Z,4.60
2023-03-29T03:33:20.425Z,4.60
2023-03-29T03:39:48.272Z,4.60
2023-03-29T03:45:51.074Z,4.50
2023-03-29T03:51:56.672Z,4.50
2023-03-29T03:57:59.513Z,4.50
2023-03-29T04:04:03.278Z,4.50
2023-03-29T04:10:08.964Z,4.50
2023-03-29T04:16:24.192Z,4.60
2023-03-29T04:22:27.057Z,4.60
2023-03-29T04:28:29.234Z,4.50
2023-03-29T04:34:43.096Z,4.50
2023-03-29T04:40:45.829Z,4.40
2023-03-29T04:47:06.333Z,4.30
2023-03-29T04:53:08.577Z,4.30
2023-03-29T04:59:10.890Z,4.20
2023-03-29T05:05:14.118Z,4.20
2023-03-29T05:11:17.042Z,4.20
2023-03-29T05:17:19.165Z,4.20
2023-03-29T05:23:22.410Z,4.30
2023-03-29T05:29:42.583Z,4.30
2023-03-29T05:36:04.658Z,4.30
2023-03-29T05:42:07.173Z,4.40
2023-03-29T05:48:25.756Z,4.50
2023-03-29T05:54:27.807Z,4.60
2023-03-29T06:00:31.978Z,4.70
2023-03-29T06:06:48.640Z,4.90
2023-03-29T06:12:51.638Z,5.00
2023-03-29T06:18:56.507Z,5.20
2023-03-29T06:24:58.711Z,5.40
2023-03-29T06:31:06.059Z,5.60
2023-03-29T06:37:13.599Z,5.80
2023-03-29T06:43:15.652Z,6.00
2023-03-29T06:49:40.574Z,6.30
2023-03-29T06:56:09.189Z,6.60
2023-03-29T07:02:19.879Z,6.80
2023-03-29T07:08:43.400Z,7.00
2023-03-29T07:14:53.625Z,7.20
2023-03-29T07:20:57.397Z,7.30
2023-03-29T07:27:04.195Z,7.40
2023-03-29T07:33:10.059Z,7.60
2023-03-29T07:39:17.662Z,7.80
2023-03-29T07:45:34.974Z,8.20
2023-03-29T07:51:43.968Z,8.70
2023-03-29T07:57:49.811Z,8.80
2023-03-29T08:03:52.518Z,9.10
2023-03-29T08:09:58.568Z,9.20
2023-03-29T08:16:13.896Z,9.00
2023-03-29T08:22:23.309Z,9.20
2023-03-29T08:28:54.222Z,9.30
2023-03-29T08:34:58.573Z,9.60
2023-03-29T08:41:38.001Z,9.80
2023-03-29T08:48:07.057Z,10.30
2023-03-29T08:54:33.256Z,10.60
2023-03-29T09:00:54.102Z,10.70
2023-03-29T09:06:57.833Z,10.80
2023-03-29T09:13:17.801Z,11.30
2023-03-29T09:19:51.457Z,11.40
2023-03-29T09:25:58.037Z,11.40
2023-03-29T09:32:24.300Z,11.30
2023-03-29T09:38:38.785Z,11.10
2023-03-29T09:45:08.630Z,11.00
2023-03-29T09:51:25.666Z,10.90
2023-03-29T09:57:29.127Z,11.00
2023-03-29T10:03:34.913Z,10.90
2023-03-29T10:09:50.504Z,11.30
2023-03-29T10:16:09.769Z,11.40
2023-03-29T10:22:26.310Z,11.40
2023-03-29T10:28:28.427Z,11.70
2023-03-29T10:34:30.542Z,11.90
2023-03-29T10:40:35.333Z,12.30
2023-03-29T10:46:46.517Z,12.60
2023-03-29T10:52:50.230Z,12.80
2023-03-29T10:59:14.469Z,12.40
2023-03-29T11:05:49.180Z,12.10
2023-03-29T11:12:18.750Z,12.00
2023-03-29T11:18:50.957Z,12.10
2023-03-29T11:25:23.958Z,12.30
2023-03-29T11:31:33.382Z,12.70
2023-03-29T11:37:48.022Z,13.40
2023-03-29T11:43:59.204Z,14.00
2023-03-29T11:50:14.810Z,14.20
2023-03-29T11:56:29.307Z,13.80
2023-03-29T12:03:16.179Z,13.60
2023-03-29T12:09:24.174Z,13.60
2023-03-29T12:15:27.637Z,13.70
2023-03-29T12:21:30.597Z,13.90
2023-03-29T12:28:00.392Z,14.00
2023-03-29T12:34:21.374Z,13.80
2023-03-29T12:40:28.546Z,13.30
2023-03-29T12:46:54.776Z,13.10
2023-03-29T12:53:08.009Z,13.20
2023-03-29T12:59:38.245Z,13.50
2023-03-29T13:05:40.158Z,13.50
2023-03-29T13:11:42.665Z,13.10
2023-03-29T13:17:56.620Z,12.90
2023-03-29T13:24:12.041Z,12.70
2023-03-29T13:30:33.652Z,12.60
2023-03-29T13:36:51.341Z,12.90
2023-03-29T13:43:30.863Z,13.60
2023-03-29T13:49:34.865Z,14.40
2023-03-29T13:56:03.724Z,14.60
2023-03-29T14:02:06.701Z,14.30
2023-03-29T14:08:28.813Z,14.30
2023-03-29T14:14:32.201Z,14.40
2023-03-29T14:20:36.575Z,14.70
2023-03-29T14:26:40.527Z,14.90
2023-03-29T14:32:42.400Z,14.80
2023-03-29T14:38:49.845Z,14.50
2023-03-29T14:44:56.726Z,14.40
2023-03-29T14:50:59.926Z,14.20
2023-03-29T14:57:07.170Z,14.00
2023-03-29T15:03:16.877Z,13.90
2023-03-29T15:09:30.170Z,13.80
2023-03-29T15:15:34.665Z,14.00
2023-03-29T15:21:38.723Z,13.90
2023-03-29T15:27:42.419Z,13.80
2023-03-29T15:33:44.561Z,13.60
2023-03-29T15:39:46.545Z,13.60
2023-03-29T15:45:48.629Z,13.70
2023-03-29T15:51:53.997Z,13.80
2023-03-29T15:57:58.151Z,13.60
2023-03-29T16:04:16.096Z,13.40
2023-03-29T16:10:17.965Z,13.30
2023-03-29T16:16:19.949Z,13.20
2023-03-29T16:22:22.147Z,13.10
2023-03-29T16:28:24.038Z,13.00
2023-03-29T16:34:26.751Z,13.00
2023-03-29T16:40:31.623Z,12.70
2023-03-29T16:46:33.694Z,12.60
2023-03-29T16:52:35.614Z,12.60
2023-03-29T16:58:39.596Z,12.60
2023-03-29T17:04:41.926Z,12.60
2023-03-29T17:10:44.276Z,12.60
2023-03-29T17:16:46.413Z,12.50
2023-03-29T17:22:51.559Z,12.50
2023-03-29T17:28:53.361Z,12.30
2023-03-29T17:35:01.858Z,12.20
2023-03-29T17:41:04.530Z,12.00
2023-03-29T17:47:06.700Z,11.90
2023-03-29T17:53:10.179Z,11.70
2023-03-29T17:59:12.074Z,11.60
2023-03-29T18:05:13.913Z,11.40
2023-03-29T18:11:22.944Z,11.40
2023-03-29T18:17:27.969Z,11.30
2023-03-29T18:23:30.391Z,11.10
2023-03-29T18:29:35.766Z,11.00
2023-03-29T18:35:38.548Z,11.00
2023-03-29T18:41:41.058Z,10.90
2023-03-29T18:47:46.871Z,10.90
2023-03-29T18:53:56.247Z,10.90
2023-03-29T19:00:01.417Z,11.00
2023-03-29T19:06:06.450Z,11.10
2023-03-29T19:12:18.327Z,11.10
2023-03-29T19:18:20.196Z,10.90
2023-03-29T19:24:23.084Z,10.70
2023-03-29T19:30:25.840Z,10.60
2023-03-29T19:36:28.304Z,10.70
2023-03-29T19:42:30.390Z,10.70
2023-03-29T19:48:32.259Z,10.70
2023-03-29T19:54:34.179Z,10.70
2023-03-29T20:00:38.766Z,10.60
2023-03-29T20:06:40.753Z,10.60
2023-03-29T20:12:42.606Z,10.60
2023-03-29T20:18:45.721Z,10.70
2023-03-29T20:24:47.514Z,10.70
2023-03-29T20:30:51.272Z,10.70
2023-03-29T20:36:55.393Z,10.60
2023-03-29T20:42:57.586Z,10.70
2023-03-29T20:49:01.560Z,10.70
2023-03-29T20:55:04.211Z,10.80
2023-03-29T21:01:06.381Z,10.70
2023-03-29T21:07:08.401Z,10.70
2023-03-29T21:13:10.706Z,10.70
2023-03-29T21:19:12.953Z,10.70
2023-03-29T21:25:15.873Z,10.80
2023-03-29T21:31:17.807Z,10.80
2023-03-29T21:37:19.655Z,10.80
2023-03-29T21:43:21.551Z,10.90
2023-03-29T21:49:23.425Z,10.90
2023-03-29T21:55:27.829Z,10.90
2023-03-29T22:01:29.903Z,10.90
2023-03-29T22:07:35.192Z,10.80
2023-03-29T22:13:37.597Z,10.70
2023-03-29T22:19:40.078Z,10.60
2023-03-29T22:25:41.993Z,10.60
2023-03-29T22:31:43.813Z,10.60
2023-03-29T22:37:45.790Z,10.60
2023-03-29T22:43:47.614Z,10.50
2023-03-29T22:49:49.541Z,10.50
2023-03-29T22:55:51.576Z,10.40
2023-03-29T23:01:53.472Z,10.40
2023-03-29T23:07:55.888Z,10.30
2023-03-29T23:13:57.765Z,10.30
2023-03-29T23:19:59.638Z,10.40
2023-03-29T23:26:01.845Z,10.40
2023-03-29T23:32:04.209Z,10.20
2023-03-29T23:38:06.027Z,10.30
2023-03-29T23:44:07.962Z,10.30
2023-03-29T23:50:13.569Z,10.30
2023-03-29T23:56:15.754Z,10.40
